createdAt,value
2023-04-06T00:00:13.019Z,78.10
2023-04-06T00:01:12.974Z,76.70
2023-04-06T00:02:12.999Z,76.20
2023-04-06T00:03:13.129Z,75.30
2023-04-06T00:04:13.397Z,74.40
2023-04-06T00:05:13.786Z,74.10
2023-04-06T00:06:15.400Z,72.80
2023-04-06T00:07:13.730Z,70.90
2023-04-06T00:08:13.823Z,70.60
2023-04-06T00:09:13.957Z,69.20
2023-04-06T00:10:13.215Z,68.40
2023-04-06T00:11:13.760Z,68.80
2023-04-06T00:12:13.735Z,69.30
2023-04-06T00:13:13.839Z,70.00
2023-04-06T00:14:14.145Z,71.80
2023-04-06T00:15:13.291Z,72.90
2023-04-06T00:16:13.205Z,73.60
2023-04-06T00:17:13.297Z,72.50
2023-04-06T00:18:13.267Z,71.70
2023-04-06T00:19:13.094Z,73.10
2023-04-06T00:20:13.240Z,73.20
2023-04-06T00:21:13.138Z,72.90
2023-04-06T00:22:13.139Z,72.50
2023-04-06T00:23:13.088Z,72.60
2023-04-06T00:24:13.140Z,74.50
2023-04-06T00:25:13.406Z,74.20
2023-04-06T00:26:13.297Z,76.30
2023-04-06T00:27:13.599Z,76.80
2023-04-06T00:28:13.460Z,78.00
2023-04-06T00:29:13.518Z,80.70
2023-04-06T00:30:13.593Z,80.60
2023-04-06T00:31:13.442Z,80.20
2023-04-06T00:32:13.381Z,79.20
2023-04-06T00:33:13.545Z,78.30
2023-04-06T00:34:13.479Z,78.40
2023-04-06T00:35:13.753Z,76.70
2023-04-06T00:36:13.730Z,75.70
2023-04-06T00:37:13.663Z,74.50
2023-04-06T00:38:13.722Z,74.30
2023-04-06T00:39:13.571Z,73.20
2023-04-06T00:40:13.491Z,72.40
2023-04-06T00:41:13.560Z,73.30
2023-04-06T00:42:13.456Z,74.10
2023-04-06T00:43:13.361Z,74.50
2023-04-06T00:44:13.376Z,75.20
2023-04-06T00:45:13.475Z,75.60
2023-04-06T00:46:13.420Z,74.60
2023-04-06T00:47:13.475Z,74.70
2023-04-06T00:48:13.403Z,73.50
2023-04-06T00:49:13.459Z,72.80
2023-04-06T00:50:13.695Z,72.70
2023-04-06T00:51:13.601Z,72.90
2023-04-06T00:52:13.427Z,73.10
2023-04-06T00:53:13.337Z,73.40
2023-04-06T00:54:13.290Z,73.50
2023-04-06T00:55:13.358Z,72.70
2023-04-06T00:56:13.967Z,72.80
2023-04-06T00:57:13.259Z,71.90
2023-04-06T00:58:13.443Z,71.40
2023-04-06T00:59:13.688Z,71.10
2023-04-06T01:00:13.686Z,70.30
2023-04-06T01:01:13.609Z,69.50
2023-04-06T01:02:13.803Z,68.20
2023-04-06T01:03:14.120Z,67.50
2023-04-06T01:04:13.027Z,66.70
2023-04-06T01:05:12.963Z,66.30
2023-04-06T01:06:12.999Z,66.30
2023-04-06T01:07:13.002Z,65.90
2023-04-06T01:08:13.088Z,65.40
2023-04-06T01:09:13.440Z,65.20
2023-04-06T01:10:13.350Z,64.70
2023-04-06T01:11:13.292Z,64.40
2023-04-06T01:12:13.473Z,64.10
2023-04-06T01:13:13.502Z,63.70
2023-04-06T01:14:13.790Z,63.80
2023-04-06T01:15:13.793Z,64.00
2023-04-06T01:16:13.770Z,63.80
2023-04-06T01:17:13.636Z,63.40
2023-04-06T01:18:13.571Z,62.90
2023-04-06T01:19:13.463Z,63.00
2023-04-06T01:20:13.439Z,63.20
2023-04-06T01:21:13.396Z,62.60
2023-04-06T01:22:13.327Z,62.70
2023-04-06T01:23:13.424Z,62.30
2023-04-06T01:24:13.655Z,62.30
2023-04-06T01:25:13.494Z,62.30
2023-04-06T01:26:13.604Z,62.10
2023-04-06T01:27:13.639Z,61.90
2023-04-06T01:28:13.766Z,61.70
2023-04-06T01:29:14.130Z,61.30
2023-04-06T01:30:13.062Z,61.60
2023-04-06T01:31:13.005Z,61.40
2023-04-06T01:32:13.247Z,61.70
2023-04-06T01:33:13.370Z,61.40
2023-04-06T01:34:13.356Z,61.60
2023-04-06T01:35:13.558Z,61.70
2023-04-06T01:36:13.418Z,62.30
2023-04-06T01:37:13.594Z,61.70
2023-04-06T01:38:13.631Z,61.60
2023-04-06T01:39:13.655Z,61.60
2023-04-06T01:40:13.596Z,61.50
2023-04-06T01:41:13.689Z,61.90
2023-04-06T01:42:13.568Z,62.00
2023-04-06T01:43:13.609Z,62.00
2023-04-06T01:44:13.505Z,62.90
2023-04-06T01:45:13.505Z,62.50
2023-04-06T01:46:13.817Z,62.40
2023-04-06T01:47:13.698Z,62.30
2023-04-06T01:48:14.143Z,62.40
2023-04-06T01:49:13.294Z,62.50
2023-04-06T01:50:13.132Z,62.20
2023-04-06T01:51:13.365Z,62.40
2023-04-06T01:52:13.557Z,62.50
2023-04-06T01:53:13.543Z,62.60
2023-04-06T01:54:13.632Z,62.20
2023-04-06T01:55:13.728Z,62.20
2023-04-06T01:56:13.895Z,62.20
2023-04-06T01:57:13.082Z,62.20
2023-04-06T01:58:13.116Z,62.10
2023-04-06T01:59:13.089Z,63.20
2023-04-06T02:00:13.108Z,62.40
2023-04-06T02:01:13.900Z,62.10
2023-04-06T02:02:13.074Z,61.70
2023-04-06T02:03:13.455Z,61.80
2023-04-06T02:04:13.764Z,62.60
2023-04-06T02:05:14.016Z,63.50
2023-04-06T02:06:13.187Z,63.90
2023-04-06T02:07:13.503Z,64.30
2023-04-06T02:08:13.702Z,64.10
2023-04-06T02:09:13.634Z,64.00
2023-04-06T02:10:13.568Z,64.30
2023-04-06T02:11:13.558Z,65.10
2023-04-06T02:12:13.424Z,66.40
2023-04-06T02:13:13.492Z,65.90
2023-04-06T02:14:13.889Z,65.40
2023-04-06T02:15:12.822Z,66.20
2023-04-06T02:16:14.001Z,66.30
2023-04-06T02:17:12.962Z,68.30
2023-04-06T02:18:12.963Z,67.80
2023-04-06T02:19:13.553Z,67.20
2023-04-06T02:20:13.547Z,66.10
2023-04-06T02:21:13.568Z,65.50
2023-04-06T02:22:13.715Z,66.30
2023-04-06T02:23:14.181Z,65.20
2023-04-06T02:24:13.435Z,64.70
2023-04-06T02:25:13.499Z,64.30
2023-04-06T02:26:13.398Z,64.00
2023-04-06T02:27:13.306Z,63.80
2023-04-06T02:28:13.191Z,63.40
2023-04-06T02:29:13.026Z,64.00
2023-04-06T02:30:12.849Z,63.90
2023-04-06T02:31:13.697Z,64.10
2023-04-06T02:32:13.666Z,64.40
2023-04-06T02:33:13.823Z,64.30
2023-04-06T02:34:13.803Z,64.20
2023-04-06T02:35:13.703Z,63.80
2023-04-06T02:36:13.780Z,64.30
2023-04-06T02:37:13.960Z,64.70
2023-04-06T02:38:13.096Z,64.60
2023-04-06T02:39:13.256Z,64.50
2023-04-06T02:40:13.397Z,65.00
2023-04-06T02:41:13.396Z,64.70
2023-04-06T02:42:13.758Z,65.30
2023-04-06T02:43:13.879Z,64.60
2023-04-06T02:44:13.916Z,64.60
2023-04-06T02:45:13.065Z,65.10
2023-04-06T02:46:13.442Z,64.70
2023-04-06T02:47:13.843Z,64.50
2023-04-06T02:48:13.862Z,63.60
2023-04-06T02:49:14.347Z,64.00
2023-04-06T02:50:13.439Z,63.80
2023-04-06T02:51:13.767Z,63.70
2023-04-06T02:52:14.030Z,64.00
2023-04-06T02:53:13.105Z,64.20
2023-04-06T02:54:13.142Z,64.20
2023-04-06T02:55:13.117Z,64.60
2023-04-06T02:56:13.359Z,64.10
2023-04-06T02:57:13.500Z,63.90
2023-04-06T02:58:13.988Z,64.10
2023-04-06T02:59:13.276Z,63.90
2023-04-06T03:00:13.327Z,63.90
2023-04-06T03:01:13.490Z,64.30
2023-04-06T03:02:13.909Z,64.50
2023-04-06T03:03:13.391Z,64.30
2023-04-06T03:04:13.468Z,64.00
2023-04-06T03:05:13.496Z,63.40
2023-04-06T03:06:13.438Z,63.20
2023-04-06T03:07:13.394Z,63.90
2023-04-06T03:08:13.370Z,63.90
2023-04-06T03:09:13.694Z,63.90
2023-04-06T03:10:13.815Z,64.50
2023-04-06T03:11:14.039Z,64.00
2023-04-06T03:12:13.203Z,64.20
2023-04-06T03:13:13.220Z,64.70
2023-04-06T03:14:13.413Z,65.10
2023-04-06T03:15:13.416Z,63.80
2023-04-06T03:16:13.808Z,64.20
2023-04-06T03:17:13.713Z,64.10
2023-04-06T03:18:13.888Z,63.90
2023-04-06T03:19:12.900Z,64.30
2023-04-06T03:20:12.839Z,64.50
2023-04-06T03:21:13.739Z,63.50
2023-04-06T03:22:13.971Z,63.20
2023-04-06T03:23:14.205Z,63.50
2023-04-06T03:24:13.169Z,63.30
2023-04-06T03:25:13.247Z,63.20
2023-04-06T03:26:13.350Z,63.50
2023-04-06T03:27:13.404Z,63.10
2023-04-06T03:28:13.501Z,63.20
2023-04-06T03:29:13.704Z,63.30
2023-04-06T03:30:13.882Z,63.00
2023-04-06T03:31:14.094Z,63.10
2023-04-06T03:32:13.354Z,63.30
2023-04-06T03:33:13.603Z,63.50
2023-04-06T03:34:13.857Z,63.70
2023-04-06T03:35:13.959Z,64.40
2023-04-06T03:36:12.772Z,63.50
2023-04-06T03:37:13.999Z,63.80
2023-04-06T03:38:13.006Z,63.00
2023-04-06T03:39:12.979Z,62.60
2023-04-06T03:40:12.830Z,62.70
2023-04-06T03:41:13.883Z,62.60
2023-04-06T03:42:12.949Z,61.50
2023-04-06T03:43:12.911Z,61.20
2023-04-06T03:44:12.869Z,61.00
2023-04-06T03:45:14.060Z,60.70
2023-04-06T03:46:13.476Z,61.10
2023-04-06T03:47:13.521Z,60.90
2023-04-06T03:48:13.929Z,60.80
2023-04-06T03:49:13.033Z,60.60
2023-04-06T03:50:13.001Z,60.00
2023-04-06T03:51:13.324Z,59.50
2023-04-06T03:52:13.532Z,59.30
2023-04-06T03:53:13.371Z,59.00
2023-04-06T03:54:13.663Z,58.90
2023-04-06T03:55:13.659Z,58.90
2023-04-06T03:56:13.663Z,58.80
2023-04-06T03:57:13.654Z,58.70
2023-04-06T03:58:13.650Z,59.40
2023-04-06T03:59:13.732Z,59.60
2023-04-06T04:00:13.884Z,59.70
2023-04-06T04:01:13.318Z,59.70
2023-04-06T04:02:13.712Z,59.90
2023-04-06T04:03:14.206Z,60.20
2023-04-06T04:04:13.201Z,59.50
2023-04-06T04:05:13.302Z,59.00
2023-04-06T04:06:13.300Z,59.00
2023-04-06T04:07:13.212Z,58.60
2023-04-06T04:08:13.111Z,58.60
2023-04-06T04:09:13.330Z,58.60
2023-04-06T04:10:13.536Z,58.90
2023-04-06T04:11:13.843Z,58.80
2023-04-06T04:12:13.989Z,58.80
2023-04-06T04:13:13.045Z,58.80
2023-04-06T04:14:13.347Z,59.10
2023-04-06T04:15:13.827Z,58.70
2023-04-06T04:16:14.056Z,58.80
2023-04-06T04:17:13.027Z,59.00
2023-04-06T04:18:12.887Z,59.10
2023-04-06T04:19:18.858Z,59.30
2023-04-06T04:20:13.938Z,58.90
2023-04-06T04:21:12.939Z,58.30
2023-04-06T04:22:13.293Z,58.30
2023-04-06T04:23:13.532Z,58.20
2023-04-06T04:24:13.716Z,58.20
2023-04-06T04:25:13.593Z,58.20
2023-04-06T04:26:13.754Z,58.30
2023-04-06T04:27:14.041Z,58.50
2023-04-06T04:28:13.091Z,58.50
2023-04-06T04:29:13.183Z,58.20
2023-04-06T04:30:13.066Z,59.00
2023-04-06T04:31:13.115Z,59.10
2023-04-06T04:32:13.554Z,59.40
2023-04-06T04:33:13.707Z,58.70
2023-04-06T04:34:13.887Z,59.50
2023-04-06T04:35:12.808Z,60.10
2023-04-06T04:36:13.827Z,59.60
2023-04-06T04:37:13.642Z,59.40
2023-04-06T04:38:13.491Z,58.80
2023-04-06T04:39:13.721Z,58.50
2023-04-06T04:40:13.732Z,58.90
2023-04-06T04:41:13.854Z,59.10
2023-04-06T04:42:13.874Z,59.40
2023-04-06T04:43:13.913Z,59.00
2023-04-06T04:44:12.764Z,58.90
2023-04-06T04:45:14.107Z,58.40
2023-04-06T04:46:13.145Z,59.00
2023-04-06T04:47:13.586Z,59.20
2023-04-06T04:48:13.671Z,59.30
2023-04-06T04:49:13.857Z,59.20
2023-04-06T04:50:13.885Z,59.60
2023-04-06T04:51:14.159Z,59.60
2023-04-06T04:52:13.480Z,60.40
2023-04-06T04:53:13.452Z,59.80
2023-04-06T04:54:13.556Z,59.30
2023-04-06T04:55:13.841Z,58.90
2023-04-06T04:56:13.841Z,58.80
2023-04-06T04:57:14.043Z,58.70
2023-04-06T04:58:13.533Z,58.80
2023-04-06T04:59:13.750Z,58.50
2023-04-06T05:00:13.991Z,58.20
2023-04-06T05:01:12.958Z,58.10
2023-04-06T05:02:13.364Z,58.20
2023-04-06T05:03:13.741Z,58.40
2023-04-06T05:04:14.138Z,57.60
2023-04-06T05:05:13.426Z,57.80
2023-04-06T05:06:13.872Z,58.60
2023-04-06T05:07:12.885Z,57.70
2023-04-06T05:08:13.150Z,56.90
2023-04-06T05:09:13.354Z,56.60
2023-04-06T05:10:13.474Z,56.30
2023-04-06T05:11:13.363Z,55.80
2023-04-06T05:12:13.368Z,55.40
2023-04-06T05:13:13.491Z,54.90
2023-04-06T05:14:13.555Z,55.10
2023-04-06T05:15:13.572Z,54.60
2023-04-06T05:16:13.793Z,54.40
2023-04-06T05:17:13.914Z,53.80
2023-04-06T05:18:12.938Z,53.80
2023-04-06T05:19:12.881Z,53.80
2023-04-06T05:20:13.955Z,53.60
2023-04-06T05:21:12.832Z,53.80
2023-04-06T05:22:14.064Z,54.00
2023-04-06T05:23:13.782Z,53.80
2023-04-06T05:24:13.683Z,53.50
2023-04-06T05:25:13.574Z,53.50
2023-04-06T05:26:13.406Z,53.80
2023-04-06T05:27:13.673Z,53.30
2023-04-06T05:28:13.570Z,53.30
2023-04-06T05:29:13.633Z,53.40
2023-04-06T05:30:13.609Z,53.00
2023-04-06T05:31:13.589Z,52.70
2023-04-06T05:32:13.641Z,52.90
2023-04-06T05:33:13.727Z,52.80
2023-04-06T05:34:14.001Z,53.10
2023-04-06T05:35:13.166Z,52.70
2023-04-06T05:36:15.174Z,52.40
2023-04-06T05:37:13.626Z,52.50
2023-04-06T05:38:13.916Z,52.50
2023-04-06T05:39:12.870Z,52.40
2023-04-06T05:40:13.938Z,52.20
2023-04-06T05:41:13.263Z,52.60
2023-04-06T05:42:13.270Z,51.90
2023-04-06T05:43:13.161Z,52.30
2023-04-06T05:44:13.507Z,52.40
2023-04-06T05:45:13.641Z,52.30
2023-04-06T05:46:13.860Z,52.00
2023-04-06T05:47:12.850Z,52.10
2023-04-06T05:48:13.824Z,52.00
2023-04-06T05:49:13.847Z,52.00
2023-04-06T05:50:13.796Z,52.00
2023-04-06T05:51:14.008Z,51.70
2023-04-06T05:52:13.158Z,51.80
2023-04-06T05:53:13.469Z,51.50
2023-04-06T05:54:13.646Z,51.80
2023-04-06T05:55:13.595Z,51.40
2023-04-06T05:56:13.790Z,51.10
2023-04-06T05:57:13.696Z,51.00
2023-04-06T05:58:13.702Z,50.30
2023-04-06T05:59:13.834Z,51.00
2023-04-06T06:00:14.154Z,50.40
2023-04-06T06:01:13.096Z,50.40
2023-04-06T06:02:13.062Z,50.20
2023-04-06T06:03:13.078Z,50.10
2023-04-06T06:04:13.192Z,50.30
2023-04-06T06:05:13.582Z,50.40
2023-04-06T06:06:13.752Z,50.50
2023-04-06T06:07:13.617Z,50.20
2023-04-06T06:08:13.971Z,50.50
2023-04-06T06:09:12.851Z,50.20
2023-04-06T06:10:13.715Z,50.50
2023-04-06T06:11:13.863Z,50.70
2023-04-06T06:12:14.762Z,49.90
2023-04-06T06:13:12.788Z,50.10
2023-04-06T06:14:13.865Z,50.30
2023-04-06T06:15:14.100Z,50.20
2023-04-06T06:16:13.332Z,50.20
2023-04-06T06:17:13.439Z,50.70
2023-04-06T06:18:13.475Z,51.30
2023-04-06T06:19:13.391Z,50.40
2023-04-06T06:20:13.455Z,49.90
2023-04-06T06:21:13.351Z,49.60
2023-04-06T06:22:13.597Z,50.00
2023-04-06T06:23:13.540Z,50.10
2023-04-06T06:24:13.919Z,49.70
2023-04-06T06:25:12.956Z,50.20
2023-04-06T06:26:12.794Z,49.70
2023-04-06T06:27:14.244Z,49.40
2023-04-06T06:28:13.626Z,49.30
2023-04-06T06:29:13.585Z,48.70
2023-04-06T06:30:13.494Z,48.70
2023-04-06T06:31:13.403Z,48.30
2023-04-06T06:32:13.417Z,48.60
2023-04-06T06:33:13.318Z,48.20
2023-04-06T06:34:13.289Z,48.40
2023-04-06T06:35:13.283Z,48.70
2023-04-06T06:36:13.203Z,48.20
2023-04-06T06:37:13.507Z,48.10
2023-04-06T06:38:13.687Z,47.70
2023-04-06T06:39:13.688Z,48.00
2023-04-06T06:40:13.928Z,47.70
2023-04-06T06:41:13.200Z,48.20
2023-04-06T06:42:14.708Z,48.20
2023-04-06T06:43:12.873Z,48.00
2023-04-06T06:44:14.122Z,48.00
2023-04-06T06:45:13.298Z,48.20
2023-04-06T06:46:13.731Z,48.10
2023-04-06T06:47:13.630Z,47.80
2023-04-06T06:48:13.701Z,48.40
2023-04-06T06:49:13.952Z,47.70
2023-04-06T06:50:12.911Z,47.80
2023-04-06T06:51:12.921Z,48.20
2023-04-06T06:52:12.873Z,48.80
2023-04-06T06:53:13.806Z,48.40
2023-04-06T06:54:13.854Z,47.20
2023-04-06T06:55:19.191Z,47.40
2023-04-06T06:56:13.130Z,47.60
2023-04-06T06:57:13.054Z,48.30
2023-04-06T06:58:13.421Z,47.60
2023-04-06T06:59:13.717Z,46.70
2023-04-06T07:00:13.730Z,46.70
2023-04-06T07:01:13.697Z,46.50
2023-04-06T07:02:14.352Z,47.20
2023-04-06T07:03:13.635Z,47.20
2023-04-06T07:04:14.841Z,47.30
2023-04-06T07:05:26.668Z,47.30
2023-04-06T07:06:12.941Z,47.70
2023-04-06T07:07:16.714Z,47.10
2023-04-06T07:08:14.050Z,47.10
2023-04-06T07:09:13.228Z,47.00
2023-04-06T07:10:13.082Z,46.70
2023-04-06T07:11:13.050Z,47.10
2023-04-06T07:12:13.352Z,46.60
2023-04-06T07:13:13.223Z,47.20
2023-04-06T07:14:13.198Z,47.20
2023-04-06T07:15:13.582Z,46.80
2023-04-06T07:16:13.545Z,45.60
2023-04-06T07:17:13.895Z,45.70
2023-04-06T07:18:12.906Z,45.50
2023-04-06T07:19:13.387Z,46.10
2023-04-06T07:20:13.585Z,45.90
2023-04-06T07:21:13.556Z,46.60
2023-04-06T07:22:13.521Z,47.00
2023-04-06T07:23:13.351Z,46.60
2023-04-06T07:24:13.333Z,46.60
2023-04-06T07:25:13.461Z,46.30
2023-04-06T07:26:13.827Z,47.80
2023-04-06T07:27:13.804Z,45.80
2023-04-06T07:28:14.026Z,45.20
2023-04-06T07:29:13.445Z,46.00
2023-04-06T07:30:13.388Z,45.50
2023-04-06T07:31:13.450Z,44.80
2023-04-06T07:32:13.520Z,45.20
2023-04-06T07:33:13.641Z,45.10
2023-04-06T07:34:13.675Z,45.30
2023-04-06T07:35:13.783Z,44.90
2023-04-06T07:36:13.639Z,45.60
2023-04-06T07:37:13.873Z,45.50
2023-04-06T07:38:13.026Z,45.30
2023-04-06T07:39:13.013Z,44.70
2023-04-06T07:40:13.018Z,43.60
2023-04-06T07:41:13.244Z,43.60
2023-04-06T07:42:13.203Z,44.10
2023-04-06T07:43:13.181Z,44.00
2023-04-06T07:44:13.384Z,45.20
2023-04-06T07:45:13.534Z,43.50
2023-04-06T07:46:13.459Z,43.70
2023-04-06T07:47:13.502Z,44.50
2023-04-06T07:48:13.470Z,44.60
2023-04-06T07:49:13.992Z,44.20
2023-04-06T07:50:13.154Z,43.60
2023-04-06T07:51:13.202Z,43.50
2023-04-06T07:52:13.302Z,43.40
2023-04-06T07:53:13.439Z,44.20
2023-04-06T07:54:13.354Z,44.40
2023-04-06T07:55:13.300Z,44.50
2023-04-06T07:56:14.523Z,44.00
2023-04-06T07:57:13.662Z,45.00
2023-04-06T07:58:13.572Z,43.60
2023-04-06T07:59:13.855Z,43.60
2023-04-06T08:00:13.295Z,44.10
2023-04-06T08:01:13.363Z,44.10
2023-04-06T08:02:13.769Z,43.90
2023-04-06T08:03:14.078Z,43.50
2023-04-06T08:04:13.463Z,43.60
2023-04-06T08:05:13.930Z,43.70
2023-04-06T08:06:12.816Z,43.90
2023-04-06T08:07:13.768Z,43.40
2023-04-06T08:08:14.100Z,43.00
2023-04-06T08:09:13.253Z,42.90
2023-04-06T08:10:13.137Z,43.40
2023-04-06T08:11:13.025Z,43.30
2023-04-06T08:12:13.053Z,43.20
2023-04-06T08:13:12.952Z,42.80
2023-04-06T08:14:12.853Z,43.20
2023-04-06T08:15:13.666Z,43.20
2023-04-06T08:16:13.777Z,42.50
2023-04-06T08:17:13.954Z,41.60
2023-04-06T08:18:12.955Z,41.60
2023-04-06T08:19:12.891Z,42.60
2023-04-06T08:20:12.843Z,42.30
2023-04-06T08:21:13.885Z,42.10
2023-04-06T08:22:14.032Z,43.10
2023-04-06T08:23:12.882Z,42.10
2023-04-06T08:24:12.914Z,42.80
2023-04-06T08:25:12.832Z,42.10
2023-04-06T08:26:13.802Z,41.90
2023-04-06T08:27:14.062Z,41.50
2023-04-06T08:28:13.105Z,41.40
2023-04-06T08:29:13.115Z,41.70
2023-04-06T08:30:12.964Z,41.60
2023-04-06T08:31:13.015Z,42.00
2023-04-06T08:32:13.027Z,42.40
2023-04-06T08:33:12.987Z,41.80
2023-04-06T08:34:14.102Z,41.90
2023-04-06T08:35:13.628Z,41.60
2023-04-06T08:36:13.795Z,42.00
2023-04-06T08:37:13.817Z,41.00
2023-04-06T08:38:13.829Z,41.30
2023-04-06T08:39:13.980Z,41.20
2023-04-06T08:40:13.361Z,41.50
2023-04-06T08:41:13.310Z,40.80
2023-04-06T08:42:13.302Z,41.10
2023-04-06T08:43:13.275Z,41.20
2023-04-06T08:44:13.166Z,41.60
2023-04-06T08:45:13.029Z,41.40
2023-04-06T08:46:12.988Z,40.90
2023-04-06T08:47:12.945Z,39.90
2023-04-06T08:48:12.923Z,40.30
2023-04-06T08:49:12.963Z,39.40
2023-04-06T08:50:14.558Z,39.90
2023-04-06T08:51:15.094Z,38.40
2023-04-06T08:52:13.018Z,38.70
2023-04-06T08:53:13.026Z,39.20
2023-04-06T08:54:12.928Z,39.50
2023-04-06T08:55:13.116Z,39.80
2023-04-06T08:56:13.044Z,40.50
2023-04-06T08:57:13.093Z,39.10
2023-04-06T08:58:15.726Z,38.80
2023-04-06T08:59:13.253Z,40.30
2023-04-06T09:00:13.341Z,39.60
2023-04-06T09:01:13.631Z,38.80
2023-04-06T09:02:13.798Z,39.40
2023-04-06T09:03:13.439Z,38.60
2023-04-06T09:04:14.036Z,38.80
2023-04-06T09:05:13.407Z,38.60
2023-04-06T09:06:13.589Z,38.60
2023-04-06T09:07:13.558Z,38.00
2023-04-06T09:08:13.525Z,37.20
2023-04-06T09:09:13.586Z,38.30
2023-04-06T09:10:13.690Z,38.10
2023-04-06T09:11:13.575Z,37.10
2023-04-06T09:12:13.468Z,36.20
2023-04-06T09:13:13.321Z,36.80
2023-04-06T09:14:13.617Z,36.60
2023-04-06T09:15:13.610Z,36.00
2023-04-06T09:16:13.669Z,35.60
2023-04-06T09:17:13.539Z,35.50
2023-04-06T09:18:13.644Z,34.80
2023-04-06T09:19:13.875Z,33.90
2023-04-06T09:20:12.861Z,33.90
2023-04-06T09:21:13.895Z,34.70
2023-04-06T09:22:12.994Z,34.20
2023-04-06T09:23:12.989Z,33.40
2023-04-06T09:24:12.954Z,35.20
2023-04-06T09:25:13.100Z,34.80
2023-04-06T09:26:13.314Z,34.00
2023-04-06T09:27:13.689Z,33.50
2023-04-06T09:28:13.840Z,33.60
2023-04-06T09:29:13.707Z,34.00
2023-04-06T09:30:13.577Z,35.20
2023-04-06T09:31:13.442Z,35.60
2023-04-06T09:32:13.417Z,35.80
2023-04-06T09:33:13.462Z,35.20
2023-04-06T09:34:13.435Z,33.90
2023-04-06T09:35:13.529Z,34.60
2023-04-06T09:36:13.449Z,34.20
2023-04-06T09:37:14.345Z,33.50
2023-04-06T09:38:13.265Z,34.90
2023-04-06T09:39:13.362Z,35.70
2023-04-06T09:40:13.372Z,34.60
2023-04-06T09:41:13.446Z,33.80
2023-04-06T09:42:13.314Z,34.10
2023-04-06T09:43:13.160Z,33.40
2023-04-06T09:44:13.326Z,33.20
2023-04-06T09:45:13.346Z,33.30
2023-04-06T09:46:13.277Z,34.00
2023-04-06T09:47:13.372Z,34.20
2023-04-06T09:48:13.391Z,34.00
2023-04-06T09:49:13.479Z,33.50
2023-04-06T09:50:13.441Z,33.30
2023-04-06T09:51:13.742Z,33.40
2023-04-06T09:52:13.592Z,32.80
2023-04-06T09:53:13.502Z,32.10
2023-04-06T09:54:13.650Z,34.00
2023-04-06T09:55:14.434Z,33.00
2023-04-06T09:56:13.437Z,33.10
2023-04-06T09:57:14.809Z,33.70
2023-04-06T09:58:13.432Z,33.30
2023-04-06T09:59:13.560Z,33.70
2023-04-06T10:00:13.567Z,34.00
2023-04-06T10:01:13.580Z,33.40
2023-04-06T10:02:13.734Z,32.50
2023-04-06T10:03:13.691Z,33.00
2023-04-06T10:04:14.258Z,32.80
2023-04-06T10:05:13.552Z,32.40
2023-04-06T10:06:13.657Z,32.80
2023-04-06T10:07:13.705Z,32.80
2023-04-06T10:08:13.708Z,33.60
2023-04-06T10:09:13.930Z,33.80
2023-04-06T10:10:13.249Z,34.50
2023-04-06T10:11:13.172Z,35.00
2023-04-06T10:12:13.156Z,34.40
2023-04-06T10:13:13.160Z,32.40
2023-04-06T10:14:13.199Z,32.90
2023-04-06T10:15:13.176Z,32.80
2023-04-06T10:16:13.176Z,33.50
2023-04-06T10:17:13.076Z,33.40
2023-04-06T10:18:12.922Z,33.40
2023-04-06T10:19:13.271Z,34.00
2023-04-06T10:20:13.424Z,34.30
2023-04-06T10:21:13.459Z,35.10
2023-04-06T10:22:13.568Z,34.30
2023-04-06T10:23:13.621Z,33.90
2023-04-06T10:24:13.550Z,33.80
2023-04-06T10:25:13.593Z,33.80
2023-04-06T10:26:13.573Z,33.10
2023-04-06T10:27:13.813Z,33.50
2023-04-06T10:28:13.678Z,34.70
2023-04-06T10:29:13.577Z,34.50
2023-04-06T10:30:13.735Z,34.40
2023-04-06T10:31:18.885Z,34.20
2023-04-06T10:32:13.513Z,34.10
2023-04-06T10:33:14.062Z,34.40
2023-04-06T10:34:13.197Z,34.80
2023-04-06T10:35:13.723Z,34.10
2023-04-06T10:36:13.902Z,34.00
2023-04-06T10:37:13.018Z,34.30
2023-04-06T10:38:13.271Z,34.40
2023-04-06T10:39:13.291Z,34.20
2023-04-06T10:40:13.572Z,34.50
2023-04-06T10:41:13.460Z,34.00
2023-04-06T10:42:13.483Z,33.90
2023-04-06T10:43:13.840Z,34.20
2023-04-06T10:44:13.095Z,33.40
2023-04-06T10:45:13.237Z,34.20
2023-04-06T10:46:13.550Z,34.60
2023-04-06T10:47:13.716Z,35.30
2023-04-06T10:48:13.760Z,33.90
2023-04-06T10:49:14.520Z,33.30
2023-04-06T10:50:13.447Z,31.70
2023-04-06T10:51:15.310Z,31.10
2023-04-06T10:52:13.784Z,31.90
2023-04-06T10:53:13.955Z,33.30
2023-04-06T10:54:13.280Z,33.70
2023-04-06T10:55:13.431Z,34.40
2023-04-06T10:56:13.949Z,33.70
2023-04-06T10:57:13.060Z,33.70
2023-04-06T10:58:13.210Z,33.80
2023-04-06T10:59:13.280Z,34.00
2023-04-06T11:00:13.352Z,33.90
2023-04-06T11:01:13.606Z,32.60
2023-04-06T11:02:13.593Z,32.10
2023-04-06T11:03:13.625Z,32.20
2023-04-06T11:04:13.583Z,31.20
2023-04-06T11:05:13.655Z,31.20
2023-04-06T11:06:13.753Z,31.00
2023-04-06T11:07:13.717Z,32.10
2023-04-06T11:08:13.820Z,32.40
2023-04-06T11:09:14.744Z,33.70
2023-04-06T11:10:18.324Z,32.90
2023-04-06T11:11:13.562Z,33.80
2023-04-06T11:12:13.653Z,32.30
2023-04-06T11:13:13.553Z,32.70
2023-04-06T11:14:13.435Z,32.20
2023-04-06T11:15:13.486Z,32.90
2023-04-06T11:16:13.466Z,32.70
2023-04-06T11:17:13.750Z,33.00
2023-04-06T11:18:13.894Z,32.60
2023-04-06T11:19:12.862Z,31.40
2023-04-06T11:20:13.953Z,31.20
2023-04-06T11:21:12.917Z,31.50
2023-04-06T11:22:13.185Z,31.00
2023-04-06T11:23:13.715Z,31.10
2023-04-06T11:24:14.045Z,31.60
2023-04-06T11:25:13.263Z,32.20
2023-04-06T11:26:13.211Z,32.90
2023-04-06T11:27:13.090Z,32.50
2023-04-06T11:28:13.015Z,31.40
2023-04-06T11:29:13.424Z,31.90
2023-04-06T11:30:13.442Z,31.50
2023-04-06T11:31:13.552Z,31.30
2023-04-06T11:32:13.672Z,32.10
2023-04-06T11:33:13.695Z,32.10
2023-04-06T11:34:13.625Z,32.00
2023-04-06T11:35:13.539Z,31.40
2023-04-06T11:36:15.818Z,32.10
2023-04-06T11:37:13.717Z,32.00
2023-04-06T11:38:13.686Z,32.90
2023-04-06T11:39:14.039Z,32.60
2023-04-06T11:40:13.388Z,32.80
2023-04-06T11:41:13.544Z,32.00
2023-04-06T11:42:13.758Z,31.50
2023-04-06T11:43:14.081Z,31.90
2023-04-06T11:44:13.218Z,31.90
2023-04-06T11:45:13.102Z,32.20
2023-04-06T11:46:13.429Z,32.10
2023-04-06T11:47:13.588Z,31.90
2023-04-06T11:48:13.647Z,30.70
2023-04-06T11:49:13.703Z,31.40
2023-04-06T11:50:14.197Z,31.30
2023-04-06T11:51:16.001Z,31.30
2023-04-06T11:52:12.997Z,30.20
2023-04-06T11:53:12.998Z,32.00
2023-04-06T11:54:13.551Z,32.10
2023-04-06T11:55:13.756Z,31.90
2023-04-06T11:56:14.012Z,31.30
2023-04-06T11:57:12.926Z,30.70
2023-04-06T11:58:13.361Z,30.90
2023-04-06T11:59:13.367Z,31.40
2023-04-06T12:00:13.584Z,31.50
2023-04-06T12:01:14.696Z,31.50
2023-04-06T12:02:19.093Z,31.70
2023-04-06T12:03:15.361Z,31.50
2023-04-06T12:04:13.390Z,31.80
2023-04-06T12:05:13.482Z,32.20
2023-04-06T12:06:13.384Z,31.70
2023-04-06T12:07:13.256Z,32.80
2023-04-06T12:08:18.308Z,32.30
2023-04-06T12:09:13.698Z,32.20
2023-04-06T12:10:13.943Z,32.90
2023-04-06T12:11:13.190Z,33.50
2023-04-06T12:12:13.343Z,32.70
2023-04-06T12:13:14.162Z,32.70
2023-04-06T12:14:13.384Z,32.90
2023-04-06T12:15:13.737Z,32.60
2023-04-06T12:16:13.920Z,32.70
2023-04-06T12:17:13.267Z,32.00
2023-04-06T12:18:13.330Z,32.20
2023-04-06T12:20:22.592Z,31.80
2023-04-06T12:21:13.278Z,31.00
2023-04-06T12:22:13.147Z,30.90
2023-04-06T12:23:13.477Z,31.70
2023-04-06T12:24:15.164Z,31.30
2023-04-06T12:25:13.300Z,31.50
2023-04-06T12:26:13.565Z,31.40
2023-04-06T12:27:13.505Z,31.40
2023-04-06T12:28:13.866Z,31.70
2023-04-06T12:29:13.942Z,33.00
2023-04-06T12:30:14.531Z,32.90
2023-04-06T12:31:13.537Z,32.80
2023-04-06T12:32:13.596Z,32.20
2023-04-06T12:33:13.693Z,32.40
2023-04-06T12:34:14.041Z,34.10
2023-04-06T12:35:13.194Z,34.10
2023-04-06T12:36:13.271Z,33.10
2023-04-06T12:37:13.448Z,33.10
2023-04-06T12:38:13.471Z,32.20
2023-04-06T12:39:13.933Z,32.60
2023-04-06T12:40:12.888Z,33.00
2023-04-06T12:41:13.060Z,33.10
2023-04-06T12:42:13.214Z,33.00
2023-04-06T12:43:13.214Z,32.90
2023-04-06T12:44:13.487Z,32.50
2023-04-06T12:45:13.580Z,32.00
2023-04-06T12:46:13.758Z,32.10
2023-04-06T12:47:15.325Z,30.60
2023-04-06T12:48:13.575Z,30.90
2023-04-06T12:49:13.657Z,32.80
2023-04-06T12:50:13.700Z,33.20
2023-04-06T12:51:15.708Z,31.80
2023-04-06T12:52:13.961Z,33.30
2023-04-06T12:53:13.292Z,33.80